Terminal Aerodrome Forecast
Issued by NWS Dodge City, KS

Home | Current Version | Previous Version | Graphics & Text | Print | Product List | Glossary Off
Versions: 1 2 3 4 5 6 7 8 9 10 11 12 13 14 15 16 17 18 19 20 21 22 23 24 25 26 27 28 29 30 31 32

000
FTUS43 KDDC 251720
TAFDDC
TAF
KDDC 251720Z 2518/2618 22010KT P6SM SKC
     FM251900 22015G24KT P6SM SCT200
     FM260000 26008KT P6SM BKN180
     FM260500 32012KT P6SM BKN100=

USA.gov is the U.S. government's official web portal to all federal, state and local government web resources and services.